createdAt,value
2022-10-22T00:00:01.398Z,13.40
2022-10-22T00:02:28.170Z,19.03
2022-10-22T00:04:56.783Z,14.37
2022-10-22T00:07:24.024Z,11.30
2022-10-22T00:09:50.607Z,17.70
2022-10-22T00:12:17.482Z,15.80
2022-10-22T00:14:44.182Z,16.43
2022-10-22T00:17:11.717Z,18.97
2022-10-22T00:19:39.369Z,17.57
2022-10-22T00:22:06.920Z,19.20
2022-10-22T00:24:34.590Z,16.80
2022-10-22T00:27:01.717Z,14.80
2022-10-22T00:29:28.399Z,15.73
2022-10-22T00:34:23.506Z,16.33
2022-10-22T00:36:51.123Z,18.00
2022-10-22T00:39:20.537Z,16.70
2022-10-22T00:41:48.615Z,13.70
2022-10-22T00:44:53.023Z,16.90
2022-10-22T00:47:22.432Z,18.57
2022-10-22T00:49:49.789Z,15.90
2022-10-22T00:52:16.471Z,21.00
2022-10-22T00:54:43.509Z,16.30
2022-10-22T00:57:10.602Z,17.00
2022-10-22T00:59:37.971Z,16.63
2022-10-22T01:02:04.605Z,16.93
2022-10-22T01:04:31.300Z,17.13
2022-10-22T01:06:58.052Z,17.30
2022-10-22T01:09:34.842Z,21.47
2022-10-22T01:12:15.505Z,18.37
2022-10-22T01:15:13.512Z,15.40
2022-10-22T01:18:00.911Z,17.60
2022-10-22T01:20:33.271Z,15.30
2022-10-22T01:23:23.993Z,16.00
2022-10-22T01:26:17.884Z,19.03
2022-10-22T01:28:47.477Z,16.60
2022-10-22T01:31:16.751Z,14.33
2022-10-22T01:33:45.805Z,24.03
2022-10-22T01:36:14.090Z,14.40
2022-10-22T01:38:42.581Z,21.23
2022-10-22T01:41:10.880Z,18.30
2022-10-22T01:43:37.496Z,15.07
2022-10-22T01:46:06.024Z,19.93
2022-10-22T01:48:51.560Z,23.13
2022-10-22T01:51:45.603Z,20.80
2022-10-22T01:54:30.064Z,15.20
2022-10-22T01:57:26.275Z,17.33
2022-10-22T02:00:10.595Z,20.50
2022-10-22T02:05:44.250Z,16.80
2022-10-22T02:08:28.118Z,15.70
2022-10-22T02:10:55.503Z,15.97
2022-10-22T02:13:27.182Z,17.37
2022-10-22T02:15:55.850Z,20.90
2022-10-22T02:18:26.489Z,20.93
2022-10-22T02:20:54.420Z,17.90
2022-10-22T02:23:22.209Z,14.00
2022-10-22T02:25:55.924Z,22.03
2022-10-22T02:28:39.488Z,14.90
2022-10-22T02:31:18.958Z,18.17
2022-10-22T02:33:53.271Z,19.60
2022-10-22T02:36:21.339Z,18.97
2022-10-22T02:38:51.293Z,18.60
2022-10-22T02:41:19.480Z,16.30
2022-10-22T02:43:53.035Z,17.20
2022-10-22T02:46:19.932Z,20.87
2022-10-22T02:48:46.507Z,17.60
2022-10-22T02:51:13.449Z,20.60
2022-10-22T02:53:40.168Z,19.23
2022-10-22T02:56:07.112Z,19.13
2022-10-22T02:58:34.091Z,16.97
2022-10-22T03:01:00.707Z,19.57
2022-10-22T03:03:27.375Z,22.77
2022-10-22T03:05:53.956Z,20.23
2022-10-22T03:08:20.615Z,22.77
2022-10-22T03:10:47.240Z,15.93
2022-10-22T03:13:14.155Z,18.10
2022-10-22T03:15:40.772Z,14.40
2022-10-22T03:18:07.395Z,20.97
2022-10-22T03:20:34.050Z,21.17
2022-10-22T03:23:01.932Z,13.43
2022-10-22T03:25:30.969Z,25.70
2022-10-22T03:28:02.617Z,21.20
2022-10-22T03:30:29.257Z,17.97
2022-10-22T03:32:55.835Z,19.03
2022-10-22T03:35:22.701Z,17.33
2022-10-22T03:37:49.715Z,16.80
2022-10-22T03:40:16.704Z,20.00
2022-10-22T03:42:43.767Z,19.53
2022-10-22T03:45:10.791Z,21.93
2022-10-22T03:47:37.740Z,16.73
2022-10-22T03:50:05.371Z,18.37
2022-10-22T03:52:37.250Z,16.20
2022-10-22T03:55:05.731Z,27.53
2022-10-22T03:57:32.387Z,21.63
2022-10-22T03:59:59.097Z,12.03
2022-10-22T04:02:25.711Z,19.97
2022-10-22T04:04:52.346Z,23.23
2022-10-22T04:07:18.943Z,24.07
2022-10-22T04:09:45.526Z,19.70
2022-10-22T04:12:12.115Z,26.33
2022-10-22T04:14:38.689Z,19.93
2022-10-22T04:17:05.278Z,28.53
2022-10-22T04:19:31.877Z,31.20
2022-10-22T04:21:59.742Z,26.53
2022-10-22T04:24:26.619Z,26.53
2022-10-22T04:26:56.307Z,27.80
2022-10-22T04:29:23.801Z,25.63
2022-10-22T04:31:50.445Z,32.40
2022-10-22T04:34:17.040Z,33.00
2022-10-22T04:36:43.987Z,29.63
2022-10-22T04:39:10.799Z,30.30
2022-10-22T04:41:39.189Z,29.17
2022-10-22T04:44:06.479Z,25.13
2022-10-22T04:46:35.204Z,24.77
2022-10-22T04:49:03.831Z,28.27
2022-10-22T04:51:31.220Z,27.47
2022-10-22T04:53:58.052Z,29.27
2022-10-22T04:56:27.592Z,29.13
2022-10-22T04:59:00.041Z,29.87
2022-10-22T05:01:32.521Z,31.97
2022-10-22T05:04:01.407Z,28.90
2022-10-22T05:06:30.103Z,42.93
2022-10-22T05:08:59.985Z,33.77
2022-10-22T05:11:33.810Z,25.73
2022-10-22T05:14:02.807Z,30.37
2022-10-22T05:16:30.349Z,28.93
2022-10-22T05:18:59.055Z,31.67
2022-10-22T05:21:26.228Z,23.80
2022-10-22T05:23:54.761Z,33.17
2022-10-22T05:26:22.740Z,29.90
2022-10-22T05:28:50.978Z,36.20
2022-10-22T05:31:19.275Z,29.17
2022-10-22T05:33:46.456Z,29.77
2022-10-22T05:36:19.424Z,29.47
2022-10-22T05:38:46.281Z,31.57
2022-10-22T05:41:23.876Z,34.90
2022-10-22T05:43:51.039Z,34.33
2022-10-22T05:46:22.733Z,32.10
2022-10-22T05:48:58.923Z,27.70
2022-10-22T05:51:28.439Z,33.03
2022-10-22T05:54:00.280Z,33.23
2022-10-22T05:56:28.747Z,31.13
2022-10-22T05:58:56.207Z,29.97
2022-10-22T06:01:31.432Z,34.17
2022-10-22T06:04:03.059Z,33.60
2022-10-22T06:06:37.519Z,34.90
2022-10-22T06:09:11.190Z,30.73
2022-10-22T06:11:37.826Z,36.40
2022-10-22T06:14:04.681Z,26.73
2022-10-22T06:16:32.422Z,33.70
2022-10-22T06:19:03.016Z,27.37
2022-10-22T06:21:31.011Z,31.53
2022-10-22T06:23:58.880Z,35.30
2022-10-22T06:26:26.073Z,32.67
2022-10-22T06:28:52.855Z,29.30
2022-10-22T06:31:19.618Z,35.43
2022-10-22T06:33:46.248Z,27.07
2022-10-22T06:36:18.517Z,26.53
2022-10-22T06:38:45.374Z,26.00
2022-10-22T06:41:14.962Z,28.70
2022-10-22T06:43:46.692Z,29.23
2022-10-22T06:46:17.540Z,30.50
2022-10-22T06:48:58.659Z,26.47
2022-10-22T06:51:26.267Z,24.80
2022-10-22T06:53:54.084Z,27.10
2022-10-22T06:56:22.541Z,25.93
2022-10-22T06:58:50.740Z,29.10
2022-10-22T07:01:19.595Z,22.37
2022-10-22T07:03:46.807Z,27.57
2022-10-22T07:06:15.112Z,24.33
2022-10-22T07:08:43.044Z,25.83
2022-10-22T07:11:14.981Z,33.80
2022-10-22T07:13:42.072Z,26.57
2022-10-22T07:16:09.653Z,23.87
2022-10-22T07:18:37.757Z,22.30
2022-10-22T07:21:06.041Z,25.43
2022-10-22T07:23:32.901Z,22.07
2022-10-22T07:26:02.302Z,22.53
2022-10-22T07:28:29.786Z,26.90
2022-10-22T07:30:56.714Z,17.70
2022-10-22T07:33:23.332Z,20.57
2022-10-22T07:35:49.959Z,17.73
2022-10-22T07:38:16.589Z,19.20
2022-10-22T07:40:43.217Z,17.80
2022-10-22T07:43:09.900Z,17.37
2022-10-22T07:45:36.485Z,15.03
2022-10-22T07:48:03.189Z,17.53
2022-10-22T07:50:29.853Z,19.30
2022-10-22T07:52:58.204Z,12.50
2022-10-22T07:55:25.754Z,13.77
2022-10-22T07:57:52.571Z,17.83
2022-10-22T08:00:23.040Z,14.37
2022-10-22T08:02:51.972Z,11.30
2022-10-22T08:05:18.643Z,10.60
2022-10-22T08:07:45.491Z,6.27
2022-10-22T08:10:13.057Z,9.63
2022-10-22T08:12:40.453Z,7.10
2022-10-22T08:15:08.487Z,9.30
2022-10-22T08:17:35.238Z,6.17
2022-10-22T08:20:01.908Z,7.60
2022-10-22T08:22:28.662Z,7.30
2022-10-22T08:24:55.257Z,9.10
2022-10-22T08:27:21.878Z,7.60
2022-10-22T08:29:48.508Z,8.57
2022-10-22T08:32:15.371Z,3.27
2022-10-22T08:34:41.999Z,9.83
2022-10-22T08:37:10.381Z,8.70
2022-10-22T08:39:36.964Z,5.60
2022-10-22T08:42:32.915Z,9.07
2022-10-22T08:45:15.828Z,6.80
2022-10-22T08:48:19.644Z,7.40
2022-10-22T08:50:49.811Z,8.40
2022-10-22T08:53:20.872Z,9.03
2022-10-22T08:55:47.991Z,7.77
2022-10-22T08:58:20.557Z,5.23
2022-10-22T09:00:59.568Z,4.30
2022-10-22T09:03:38.012Z,9.20
2022-10-22T09:06:18.668Z,6.20
2022-10-22T09:08:46.799Z,13.50
2022-10-22T09:11:13.363Z,7.83
2022-10-22T09:13:46.091Z,7.60
2022-10-22T09:16:24.907Z,5.07
2022-10-22T09:19:00.505Z,7.83
2022-10-22T09:21:55.016Z,5.93
2022-10-22T09:24:40.058Z,16.03
2022-10-22T09:27:23.622Z,6.50
2022-10-22T09:29:50.282Z,9.23
2022-10-22T09:32:17.751Z,6.33
2022-10-22T09:34:49.371Z,4.97
2022-10-22T09:37:24.648Z,7.10
2022-10-22T09:39:52.983Z,7.03
2022-10-22T09:42:20.725Z,8.33
2022-10-22T09:44:59.156Z,5.37
2022-10-22T09:47:42.891Z,7.50
2022-10-22T09:50:27.294Z,6.97
2022-10-22T09:53:05.801Z,5.37
2022-10-22T09:55:32.575Z,6.47
2022-10-22T09:58:01.080Z,8.23
2022-10-22T10:00:28.285Z,7.80
2022-10-22T10:02:57.927Z,5.33
2022-10-22T10:05:31.715Z,11.80
2022-10-22T10:07:59.561Z,3.27
2022-10-22T10:10:45.355Z,5.57
2022-10-22T10:13:38.370Z,5.70
2022-10-22T10:16:20.746Z,7.20
2022-10-22T10:18:53.221Z,7.47
2022-10-22T10:21:44.755Z,6.40
2022-10-22T10:24:11.284Z,8.30
2022-10-22T10:26:48.705Z,10.93
2022-10-22T10:29:22.391Z,7.07
2022-10-22T10:32:30.986Z,3.97
2022-10-22T10:35:26.925Z,5.83
2022-10-22T10:38:23.612Z,4.10
2022-10-22T10:41:03.797Z,7.10
2022-10-22T10:43:47.509Z,7.37
2022-10-22T10:46:54.291Z,5.30
2022-10-22T10:49:25.842Z,5.67
2022-10-22T10:52:11.408Z,4.63
2022-10-22T10:54:43.944Z,10.03
2022-10-22T10:57:19.471Z,6.80
2022-10-22T10:59:54.545Z,5.60
2022-10-22T11:02:58.760Z,6.60
2022-10-22T11:05:47.049Z,7.27
2022-10-22T11:08:31.668Z,6.70
2022-10-22T11:11:04.733Z,13.20
2022-10-22T11:13:47.447Z,9.93
2022-10-22T11:16:26.653Z,10.17
2022-10-22T11:19:07.289Z,7.60
2022-10-22T11:21:49.396Z,6.80
2022-10-22T11:24:22.700Z,6.00
2022-10-22T11:26:56.167Z,9.87
2022-10-22T11:29:30.682Z,7.50
2022-10-22T11:32:01.632Z,9.00
2022-10-22T11:34:46.992Z,6.13
2022-10-22T11:37:14.532Z,5.33
2022-10-22T11:40:02.538Z,4.97
2022-10-22T11:42:43.190Z,9.13
2022-10-22T11:45:15.773Z,5.00
2022-10-22T11:48:14.939Z,4.70
2022-10-22T11:50:42.486Z,8.07
2022-10-22T11:53:15.158Z,4.50
2022-10-22T11:55:46.323Z,3.70
2022-10-22T11:58:31.800Z,4.33
2022-10-22T12:01:01.399Z,4.00
2022-10-22T12:03:31.066Z,5.10
2022-10-22T12:06:12.680Z,5.03
2022-10-22T12:08:44.024Z,3.97
2022-10-22T12:11:10.631Z,4.60
2022-10-22T12:14:01.393Z,7.63
2022-10-22T12:16:56.151Z,4.23
2022-10-22T12:19:22.433Z,4.70
2022-10-22T12:21:57.816Z,1.63
2022-10-22T12:24:29.283Z,5.57
2022-10-22T12:26:55.926Z,8.53
2022-10-22T12:29:23.858Z,7.83
2022-10-22T12:31:50.967Z,3.50
2022-10-22T12:34:24.906Z,6.87
2022-10-22T12:36:53.966Z,7.23
2022-10-22T12:39:24.983Z,2.27
2022-10-22T12:41:53.780Z,9.20
2022-10-22T12:44:20.575Z,3.30
2022-10-22T12:46:51.811Z,2.60
2022-10-22T12:49:23.655Z,4.63
2022-10-22T12:51:50.288Z,3.97
2022-10-22T12:54:30.727Z,10.27
2022-10-22T12:56:58.553Z,4.27
2022-10-22T12:59:28.542Z,3.30
2022-10-22T13:01:56.342Z,4.07
2022-10-22T13:04:26.541Z,4.80
2022-10-22T13:07:15.960Z,2.57
2022-10-22T13:09:55.512Z,4.83
2022-10-22T13:12:36.346Z,5.13
2022-10-22T13:15:28.009Z,3.00
2022-10-22T13:18:05.212Z,3.17
2022-10-22T13:20:32.886Z,2.90
2022-10-22T13:23:04.629Z,3.40
2022-10-22T13:25:37.949Z,2.40
2022-10-22T13:28:10.422Z,1.33
2022-10-22T13:30:38.795Z,2.93
2022-10-22T13:33:19.828Z,2.17
2022-10-22T13:35:46.543Z,3.13
2022-10-22T13:38:18.271Z,5.37
2022-10-22T13:40:45.011Z,4.93
2022-10-22T13:43:11.590Z,2.33
2022-10-22T13:45:38.483Z,5.60
2022-10-22T13:48:05.299Z,3.27
2022-10-22T13:50:31.929Z,2.90
2022-10-22T13:52:59.125Z,3.70
2022-10-22T13:55:31.607Z,6.20
2022-10-22T13:58:11.067Z,8.13
2022-10-22T14:00:43.184Z,3.73
2022-10-22T14:03:13.344Z,4.23
2022-10-22T14:05:40.037Z,5.57
2022-10-22T14:08:18.729Z,4.50
2022-10-22T14:10:45.595Z,3.93
2022-10-22T14:13:14.246Z,2.40
2022-10-22T14:15:40.956Z,2.77
2022-10-22T14:18:12.128Z,3.20
2022-10-22T14:20:41.911Z,4.17
2022-10-22T14:25:47.724Z,3.90
2022-10-22T14:28:14.479Z,3.97
2022-10-22T14:30:41.563Z,3.73
2022-10-22T14:33:21.041Z,2.03
2022-10-22T14:35:48.646Z,3.50
2022-10-22T14:38:15.893Z,4.23
2022-10-22T14:40:43.652Z,5.63
2022-10-22T14:43:31.066Z,3.10
2022-10-22T14:45:58.383Z,5.33
2022-10-22T14:48:25.033Z,5.30
2022-10-22T14:50:51.868Z,6.27
2022-10-22T14:53:18.577Z,2.43
2022-10-22T14:55:47.057Z,3.30
2022-10-22T14:58:13.915Z,3.43
2022-10-22T15:00:42.331Z,4.50
2022-10-22T15:03:09.695Z,3.20
2022-10-22T15:05:41.987Z,5.90
2022-10-22T15:08:08.595Z,3.90
2022-10-22T15:10:35.294Z,3.63
2022-10-22T15:13:01.987Z,7.33
2022-10-22T15:15:32.766Z,3.93
2022-10-22T15:18:02.112Z,3.30
2022-10-22T15:20:28.819Z,2.93
2022-10-22T15:22:56.354Z,7.37
2022-10-22T15:25:23.069Z,2.73
2022-10-22T15:27:51.302Z,3.63
2022-10-22T15:30:20.707Z,6.23
2022-10-22T15:32:47.288Z,4.23
2022-10-22T15:35:13.979Z,8.47
2022-10-22T15:37:40.558Z,5.37
2022-10-22T15:40:08.503Z,4.10
2022-10-22T15:42:35.129Z,4.27
2022-10-22T15:45:02.186Z,6.07
2022-10-22T15:47:30.994Z,4.07
2022-10-22T15:49:58.094Z,2.30
2022-10-22T15:52:24.786Z,10.40
2022-10-22T15:54:51.372Z,11.93
2022-10-22T15:57:18.116Z,5.30
2022-10-22T15:59:45.056Z,8.97
2022-10-22T16:02:12.699Z,4.03
2022-10-22T16:04:39.457Z,5.33
2022-10-22T16:07:06.082Z,3.20
2022-10-22T16:09:32.838Z,6.00
2022-10-22T16:11:59.756Z,4.10
2022-10-22T16:14:28.502Z,7.80
2022-10-22T16:16:56.083Z,5.83
2022-10-22T16:19:24.196Z,4.70
2022-10-22T16:21:53.281Z,4.90
2022-10-22T16:24:20.631Z,6.23
2022-10-22T16:26:48.119Z,3.90
2022-10-22T16:29:14.757Z,6.10
2022-10-22T16:31:43.476Z,10.60
2022-10-22T16:34:10.308Z,3.67
2022-10-22T16:36:38.134Z,4.17
2022-10-22T16:39:05.548Z,4.50
2022-10-22T16:41:36.508Z,6.00
2022-10-22T16:44:06.178Z,8.23
2022-10-22T16:46:33.958Z,4.70
2022-10-22T16:49:00.592Z,6.87
2022-10-22T16:51:28.480Z,7.93
2022-10-22T16:53:56.990Z,12.07
2022-10-22T16:56:25.303Z,8.97
2022-10-22T16:58:54.629Z,5.97
2022-10-22T17:01:26.110Z,10.67
2022-10-22T17:03:54.599Z,7.27
2022-10-22T17:06:23.463Z,6.40
2022-10-22T17:08:50.438Z,8.00
2022-10-22T17:11:19.863Z,6.07
2022-10-22T17:13:52.471Z,5.13
2022-10-22T17:16:21.730Z,5.53
2022-10-22T17:18:48.366Z,5.50
2022-10-22T17:21:16.213Z,4.77
2022-10-22T17:23:43.173Z,8.60
2022-10-22T17:26:20.253Z,12.60
2022-10-22T17:28:47.225Z,5.80
2022-10-22T17:31:40.440Z,5.97
2022-10-22T17:34:10.460Z,4.70
2022-10-22T17:36:37.284Z,5.93
2022-10-22T17:39:08.072Z,6.67
2022-10-22T17:41:36.965Z,8.60
2022-10-22T17:44:06.028Z,6.50
2022-10-22T17:46:33.009Z,5.33
2022-10-22T17:49:07.778Z,7.97
2022-10-22T17:51:34.533Z,6.23
2022-10-22T17:54:03.437Z,8.10
2022-10-22T17:56:32.849Z,11.90
2022-10-22T17:59:02.296Z,8.50
2022-10-22T18:01:31.959Z,10.20
2022-10-22T18:04:01.259Z,12.10
2022-10-22T18:06:28.817Z,7.30
2022-10-22T18:08:55.647Z,10.47
2022-10-22T18:11:25.395Z,7.60
2022-10-22T18:13:55.093Z,8.17
2022-10-22T18:16:22.095Z,10.00
2022-10-22T18:18:50.226Z,12.33
2022-10-22T18:21:17.773Z,10.00
2022-10-22T18:23:44.967Z,9.73
2022-10-22T18:26:11.964Z,9.47
2022-10-22T18:28:38.553Z,7.87
2022-10-22T18:31:09.696Z,6.30
2022-10-22T18:33:37.732Z,13.07
2022-10-22T18:36:09.571Z,7.50
2022-10-22T18:38:40.156Z,13.27
2022-10-22T18:41:09.055Z,10.50
2022-10-22T18:43:36.359Z,7.63
2022-10-22T18:46:06.761Z,6.93
2022-10-22T18:48:35.065Z,13.80
2022-10-22T18:51:05.397Z,12.17
2022-10-22T18:53:32.103Z,13.10
2022-10-22T18:55:58.859Z,13.10
2022-10-22T18:58:25.564Z,7.53
2022-10-22T19:00:52.235Z,11.10
2022-10-22T19:03:18.960Z,11.90
2022-10-22T19:05:54.251Z,9.77
2022-10-22T19:08:22.156Z,7.87
2022-10-22T19:10:48.912Z,7.77
2022-10-22T19:13:17.412Z,12.30
2022-10-22T19:15:44.447Z,8.77
2022-10-22T19:18:12.724Z,10.33
2022-10-22T19:20:39.311Z,14.67
2022-10-22T19:23:07.222Z,9.37
2022-10-22T19:25:34.560Z,7.30
2022-10-22T19:28:01.332Z,8.93
2022-10-22T19:30:27.973Z,10.77
2022-10-22T19:32:54.580Z,8.67
2022-10-22T19:35:21.347Z,11.13
2022-10-22T19:37:48.638Z,18.90
2022-10-22T19:40:15.505Z,18.43
2022-10-22T19:42:44.261Z,13.77
2022-10-22T19:45:11.359Z,14.63
2022-10-22T19:47:37.985Z,15.83
2022-10-22T19:50:05.676Z,7.70
2022-10-22T19:52:33.123Z,11.17
2022-10-22T19:54:59.849Z,20.67
2022-10-22T19:57:26.433Z,11.17
2022-10-22T19:59:53.019Z,12.47
2022-10-22T20:02:19.731Z,11.03
2022-10-22T20:04:49.995Z,10.13
2022-10-22T20:07:16.959Z,9.17
2022-10-22T20:09:43.574Z,10.00
2022-10-22T20:12:10.175Z,15.17
2022-10-22T20:14:37.350Z,13.83
2022-10-22T20:17:04.194Z,9.20
2022-10-22T20:19:30.887Z,7.53
2022-10-22T20:24:29.013Z,13.00
2022-10-22T20:26:55.770Z,10.90
2022-10-22T20:29:22.529Z,10.37
2022-10-22T20:31:49.199Z,10.93
2022-10-22T20:34:16.121Z,8.80
2022-10-22T20:36:42.856Z,13.00
2022-10-22T20:39:13.070Z,12.13
2022-10-22T20:41:40.473Z,10.00
2022-10-22T20:44:11.319Z,11.40
2022-10-22T20:46:38.113Z,7.00
2022-10-22T20:49:08.684Z,9.23
2022-10-22T20:51:36.866Z,11.10
2022-10-22T20:54:05.029Z,7.70
2022-10-22T20:56:32.679Z,11.30
2022-10-22T20:59:05.766Z,8.87
2022-10-22T21:01:44.472Z,9.43
2022-10-22T21:04:11.368Z,5.80
2022-10-22T21:06:38.941Z,11.13
2022-10-22T21:09:06.437Z,10.90
2022-10-22T21:11:33.289Z,12.90
2022-10-22T21:13:59.932Z,10.47
2022-10-22T21:16:26.561Z,6.43
2022-10-22T21:18:53.203Z,10.50
2022-10-22T21:21:19.938Z,7.97
2022-10-22T21:23:46.646Z,9.60
2022-10-22T21:26:13.284Z,12.67
2022-10-22T21:28:39.910Z,18.43
2022-10-22T21:31:08.832Z,11.37
2022-10-22T21:33:39.752Z,10.23
2022-10-22T21:36:08.833Z,9.33
2022-10-22T21:38:36.995Z,12.53
2022-10-22T21:41:09.352Z,11.97
2022-10-22T21:43:40.480Z,7.67
2022-10-22T21:46:09.534Z,11.83
2022-10-22T21:48:37.607Z,12.90
2022-10-22T21:51:16.289Z,11.80
2022-10-22T21:53:43.359Z,13.37
2022-10-22T21:56:15.387Z,10.10
2022-10-22T21:58:42.568Z,15.63
2022-10-22T22:01:09.425Z,14.17
2022-10-22T22:03:36.273Z,11.77
2022-10-22T22:06:06.027Z,6.73
2022-10-22T22:08:33.985Z,10.20
2022-10-22T22:11:11.967Z,9.80
2022-10-22T22:13:39.137Z,10.10
2022-10-22T22:16:12.042Z,8.40
2022-10-22T22:18:40.181Z,9.33
2022-10-22T22:21:09.414Z,8.00
2022-10-22T22:23:38.585Z,5.73
2022-10-22T22:26:05.972Z,7.13
2022-10-22T22:28:33.299Z,7.83
2022-10-22T22:31:00.348Z,8.60
2022-10-22T22:33:27.624Z,10.67
2022-10-22T22:35:58.875Z,13.03
2022-10-22T22:38:25.481Z,9.80
2022-10-22T22:40:52.084Z,10.17
2022-10-22T22:43:18.717Z,13.60
2022-10-22T22:45:45.517Z,8.10
2022-10-22T22:48:12.137Z,9.27
2022-10-22T22:50:38.703Z,6.40
2022-10-22T22:53:05.302Z,7.47
2022-10-22T22:55:31.931Z,7.03
2022-10-22T22:57:58.837Z,11.77
2022-10-22T23:00:25.520Z,10.30
2022-10-22T23:02:55.860Z,12.30
2022-10-22T23:05:22.772Z,8.57
2022-10-22T23:07:49.393Z,5.10
2022-10-22T23:10:16.119Z,7.03
2022-10-22T23:12:43.227Z,7.50
2022-10-22T23:15:10.506Z,7.93
2022-10-22T23:17:37.194Z,9.87
2022-10-22T23:20:04.269Z,9.63
2022-10-22T23:22:30.852Z,5.67
2022-10-22T23:24:57.426Z,9.57
2022-10-22T23:27:24.021Z,8.93
2022-10-22T23:29:50.618Z,5.70
2022-10-22T23:32:17.215Z,13.10
2022-10-22T23:34:43.803Z,7.47
2022-10-22T23:37:12.169Z,13.30
2022-10-22T23:39:38.878Z,9.93
2022-10-22T23:42:05.487Z,7.10
2022-10-22T23:44:32.084Z,9.83
2022-10-22T23:46:58.694Z,9.10
2022-10-22T23:49:25.279Z,15.23
2022-10-22T23:51:51.916Z,5.50
2022-10-22T23:54:18.573Z,9.70
2022-10-22T23:56:45.840Z,6.50
